createdAt,value
2023-10-09T00:00:30.059Z,0
2023-10-09T00:01:46.319Z,0
2023-10-09T00:03:02.654Z,0
2023-10-09T00:04:18.904Z,0
2023-10-09T00:05:35.233Z,0
2023-10-09T00:06:51.487Z,0
2023-10-09T00:08:07.837Z,0
2023-10-09T00:09:24.112Z,0
2023-10-09T00:10:40.412Z,0
2023-10-09T00:11:55.682Z,0
2023-10-09T00:13:12.006Z,0
2023-10-09T00:14:28.317Z,0
2023-10-09T00:15:44.611Z,0
2023-10-09T00:17:00.889Z,0
2023-10-09T00:18:17.188Z,0
2023-10-09T00:19:33.444Z,0
2023-10-09T00:20:49.782Z,0
2023-10-09T00:22:06.079Z,0
2023-10-09T00:23:22.359Z,0
2023-10-09T00:24:38.664Z,0
2023-10-09T00:25:54.952Z,0
2023-10-09T00:27:11.234Z,0
2023-10-09T00:28:26.554Z,0
2023-10-09T00:29:42.808Z,0
2023-10-09T00:30:59.129Z,0
2023-10-09T00:32:15.435Z,0
2023-10-09T00:33:31.731Z,0
2023-10-09T00:34:48.011Z,0
2023-10-09T00:36:04.304Z,0
2023-10-09T00:37:20.614Z,0
2023-10-09T00:38:36.903Z,0
2023-10-09T00:39:53.188Z,0
2023-10-09T00:41:09.474Z,0
2023-10-09T00:42:25.770Z,0
2023-10-09T00:43:42.064Z,0
2023-10-09T00:44:57.334Z,0
2023-10-09T00:46:13.671Z,0
2023-10-09T00:47:29.978Z,0
2023-10-09T00:48:46.258Z,0
2023-10-09T00:50:02.518Z,0
2023-10-09T00:51:18.837Z,0
2023-10-09T00:52:35.103Z,0
2023-10-09T00:53:51.438Z,0
2023-10-09T00:55:07.684Z,0
2023-10-09T00:56:24.017Z,0
2023-10-09T00:57:40.319Z,0
2023-10-09T00:58:56.612Z,0
2023-10-09T01:00:12.895Z,0
2023-10-09T01:01:28.200Z,0
2023-10-09T01:02:44.497Z,0
2023-10-09T01:04:00.805Z,0
2023-10-09T01:05:17.089Z,0
2023-10-09T01:06:33.372Z,0
2023-10-09T01:07:49.684Z,0
2023-10-09T01:09:05.968Z,0
2023-10-09T01:10:22.257Z,0
2023-10-09T01:11:38.561Z,0
2023-10-09T01:12:54.805Z,0
2023-10-09T01:14:11.133Z,0
2023-10-09T01:15:27.426Z,0
2023-10-09T01:16:43.734Z,0
2023-10-09T01:17:59.049Z,0
2023-10-09T01:19:15.341Z,0
2023-10-09T01:20:31.588Z,0
2023-10-09T01:21:47.918Z,0
2023-10-09T01:23:04.169Z,0
2023-10-09T01:24:20.499Z,0
2023-10-09T01:25:36.804Z,0
2023-10-09T01:26:53.101Z,0
2023-10-09T01:28:09.348Z,0
2023-10-09T01:29:25.680Z,0
2023-10-09T01:30:41.967Z,0
2023-10-09T01:31:58.269Z,0
2023-10-09T01:33:14.558Z,0
2023-10-09T01:34:29.865Z,0
2023-10-09T01:35:46.118Z,0
2023-10-09T01:37:02.452Z,0
2023-10-09T01:38:18.703Z,0
2023-10-09T01:39:35.031Z,0
2023-10-09T01:40:51.289Z,0
2023-10-09T01:42:07.636Z,0
2023-10-09T01:43:23.917Z,0
2023-10-09T01:44:40.208Z,0
2023-10-09T01:45:56.516Z,0
2023-10-09T01:47:12.795Z,0
2023-10-09T01:48:29.089Z,0
2023-10-09T01:49:45.392Z,0
2023-10-09T01:51:00.706Z,0
2023-10-09T01:52:16.991Z,0
2023-10-09T01:53:33.279Z,0
2023-10-09T01:54:49.586Z,0
2023-10-09T01:56:05.860Z,0
2023-10-09T01:57:22.165Z,0
2023-10-09T01:58:38.465Z,0
2023-10-09T01:59:54.758Z,0
2023-10-09T02:01:11.033Z,0
2023-10-09T02:02:27.326Z,0
2023-10-09T02:03:43.630Z,0
2023-10-09T02:04:59.925Z,0
2023-10-09T02:06:16.209Z,0
2023-10-09T02:07:32.505Z,0
2023-10-09T02:08:47.777Z,0
2023-10-09T02:10:04.119Z,0
2023-10-09T02:11:20.396Z,0
2023-10-09T02:12:36.703Z,0
2023-10-09T02:13:52.982Z,0
2023-10-09T02:15:09.289Z,0
2023-10-09T02:16:25.696Z,0
2023-10-09T02:17:41.994Z,0
2023-10-09T02:18:58.249Z,0
2023-10-09T02:20:14.580Z,0
2023-10-09T02:21:30.876Z,0
2023-10-09T02:22:47.165Z,0
2023-10-09T02:24:03.468Z,0
2023-10-09T02:25:19.755Z,0
2023-10-09T02:26:36.048Z,0
2023-10-09T02:27:52.343Z,0
2023-10-09T02:29:08.640Z,0
2023-10-09T02:30:24.934Z,0
2023-10-09T02:31:41.186Z,0
2023-10-09T02:32:56.540Z,0
2023-10-09T02:34:12.823Z,0
2023-10-09T02:35:29.131Z,0
2023-10-09T02:36:45.369Z,0
2023-10-09T02:38:01.710Z,0
2023-10-09T02:39:17.951Z,0
2023-10-09T02:40:34.284Z,0
2023-10-09T02:41:50.581Z,0
2023-10-09T02:43:06.879Z,0
2023-10-09T02:44:23.171Z,0
2023-10-09T02:45:39.466Z,0
2023-10-09T02:46:55.769Z,0
2023-10-09T02:48:12.043Z,0
2023-10-09T02:49:27.365Z,0
2023-10-09T02:50:43.660Z,0
2023-10-09T02:51:59.958Z,0
2023-10-09T02:53:16.251Z,0
2023-10-09T02:54:32.545Z,0
2023-10-09T02:55:48.825Z,0
2023-10-09T02:57:05.124Z,0
2023-10-09T02:58:21.414Z,0
2023-10-09T02:59:37.666Z,0
2023-10-09T03:00:53.959Z,0
2023-10-09T03:02:10.247Z,0
2023-10-09T03:03:26.597Z,0
2023-10-09T03:04:42.878Z,0
2023-10-09T03:05:58.189Z,0
2023-10-09T03:07:14.488Z,0
2023-10-09T03:08:30.772Z,0
2023-10-09T03:09:47.062Z,0
2023-10-09T03:11:03.369Z,0
2023-10-09T03:12:19.618Z,0
2023-10-09T03:13:35.949Z,0
2023-10-09T03:14:52.245Z,0
2023-10-09T03:16:08.532Z,0
2023-10-09T03:17:24.821Z,0
2023-10-09T03:18:41.124Z,0
2023-10-09T03:19:57.367Z,0
2023-10-09T03:21:13.716Z,0
2023-10-09T03:22:29.009Z,0
2023-10-09T03:23:45.322Z,0
2023-10-09T03:25:01.611Z,0
2023-10-09T03:26:17.895Z,0
2023-10-09T03:27:34.161Z,0
2023-10-09T03:28:50.481Z,0
2023-10-09T03:30:06.738Z,0
2023-10-09T03:31:23.072Z,0
2023-10-09T03:32:39.366Z,0
2023-10-09T03:33:55.667Z,0
2023-10-09T03:35:11.910Z,0
2023-10-09T03:36:28.242Z,0
2023-10-09T03:37:44.543Z,0
2023-10-09T03:38:59.802Z,0
2023-10-09T03:40:16.134Z,0
2023-10-09T03:41:32.432Z,0
2023-10-09T03:42:48.717Z,0
2023-10-09T03:44:05.019Z,0
2023-10-09T03:45:21.262Z,0
2023-10-09T03:46:37.610Z,0
2023-10-09T03:47:53.910Z,0
2023-10-09T03:49:10.189Z,0
2023-10-09T03:50:26.497Z,0
2023-10-09T03:51:42.782Z,0
2023-10-09T03:52:59.075Z,0
2023-10-09T03:54:15.377Z,0
2023-10-09T03:55:30.677Z,0
2023-10-09T03:56:46.967Z,0
2023-10-09T03:58:03.222Z,0
2023-10-09T03:59:19.552Z,0
2023-10-09T04:00:35.850Z,0
2023-10-09T04:01:52.142Z,0
2023-10-09T04:03:08.437Z,0
2023-10-09T04:04:24.734Z,0
2023-10-09T04:05:40.980Z,0
2023-10-09T04:06:57.309Z,0
2023-10-09T04:08:13.603Z,0
2023-10-09T04:09:29.906Z,0
2023-10-09T04:10:46.203Z,0
2023-10-09T04:12:01.516Z,0
2023-10-09T04:13:17.800Z,0
2023-10-09T04:14:34.091Z,0
2023-10-09T04:15:50.396Z,0
2023-10-09T04:17:06.673Z,0
2023-10-09T04:18:22.967Z,0
2023-10-09T04:19:39.273Z,0
2023-10-09T04:20:55.517Z,0
2023-10-09T04:22:11.857Z,0
2023-10-09T04:23:28.139Z,0
2023-10-09T04:24:44.445Z,0
2023-10-09T04:26:00.735Z,0
2023-10-09T04:27:17.023Z,0
2023-10-09T04:28:32.345Z,0
2023-10-09T04:29:48.624Z,0
2023-10-09T04:31:04.920Z,0
2023-10-09T04:32:21.218Z,0
2023-10-09T04:33:37.503Z,0
2023-10-09T04:34:53.808Z,0
2023-10-09T04:36:10.100Z,0
2023-10-09T04:37:26.387Z,0
2023-10-09T04:38:42.670Z,0
2023-10-09T04:39:58.968Z,0
2023-10-09T04:41:15.266Z,0
2023-10-09T04:42:31.552Z,0
2023-10-09T04:43:47.844Z,0
2023-10-09T04:45:03.155Z,0
2023-10-09T04:46:19.448Z,0
2023-10-09T04:47:35.753Z,0
2023-10-09T04:48:52.046Z,0
2023-10-09T04:50:08.345Z,0
2023-10-09T04:51:24.628Z,0
2023-10-09T04:52:40.921Z,0
2023-10-09T04:53:57.225Z,0
2023-10-09T04:55:13.518Z,0
2023-10-09T04:56:29.798Z,0
2023-10-09T04:57:46.094Z,0
2023-10-09T04:59:02.379Z,0
2023-10-09T05:00:18.674Z,0
2023-10-09T05:01:35.040Z,1
2023-10-09T05:02:51.287Z,1
2023-10-09T05:04:07.521Z,1
2023-10-09T05:05:23.714Z,2
2023-10-09T05:06:40.005Z,2
2023-10-09T05:07:56.250Z,3
2023-10-09T05:09:12.483Z,5
2023-10-09T05:10:28.728Z,3
2023-10-09T05:11:44.950Z,4
2023-10-09T05:13:01.198Z,7
2023-10-09T05:14:17.391Z,7
2023-10-09T05:15:33.675Z,6
2023-10-09T05:16:49.916Z,10
2023-10-09T05:18:05.162Z,12
2023-10-09T05:19:21.406Z,12
2023-10-09T05:20:37.659Z,17
2023-10-09T05:21:53.843Z,14
2023-10-09T05:23:10.072Z,19
2023-10-09T05:24:26.358Z,18
2023-10-09T05:25:42.600Z,20
2023-10-09T05:26:58.836Z,17
2023-10-09T05:28:15.090Z,16
2023-10-09T05:29:31.322Z,24
2023-10-09T05:30:47.565Z,19
2023-10-09T05:32:03.792Z,26
2023-10-09T05:33:20.037Z,25
2023-10-09T05:34:35.290Z,27
2023-10-09T05:35:51.527Z,36
2023-10-09T05:37:07.776Z,40
2023-10-09T05:39:40.255Z,28
2023-10-09T05:40:56.485Z,38
2023-10-09T05:42:12.736Z,46
2023-10-09T05:43:28.967Z,65
2023-10-09T05:44:45.207Z,80
2023-10-09T05:46:01.461Z,89
2023-10-09T05:47:17.641Z,98
2023-10-09T05:48:33.934Z,85
2023-10-09T05:49:50.168Z,69
2023-10-09T05:51:05.428Z,73
2023-10-09T05:52:21.669Z,71
2023-10-09T05:53:37.913Z,75
2023-10-09T05:54:54.144Z,68
2023-10-09T05:56:10.387Z,87
2023-10-09T05:57:26.615Z,123
2023-10-09T05:58:42.857Z,108
2023-10-09T05:59:59.108Z,117
2023-10-09T06:01:15.288Z,135
2023-10-09T06:02:31.571Z,154
2023-10-09T06:03:47.814Z,153
2023-10-09T06:05:04.059Z,177
2023-10-09T06:06:20.247Z,131
2023-10-09T06:07:36.671Z,103
2023-10-09T06:08:52.909Z,102
2023-10-09T06:10:09.143Z,119
2023-10-09T06:11:25.386Z,85
2023-10-09T06:12:41.625Z,85
2023-10-09T06:13:57.813Z,176
2023-10-09T06:15:14.041Z,266
2023-10-09T06:16:30.332Z,188
2023-10-09T06:17:46.572Z,210
2023-10-09T06:19:02.811Z,231
2023-10-09T06:20:19.050Z,228
2023-10-09T06:21:35.297Z,241
2023-10-09T06:22:51.525Z,194
2023-10-09T06:24:07.767Z,163
2023-10-09T06:25:23.027Z,138
2023-10-09T06:26:39.218Z,153
2023-10-09T06:27:55.495Z,165
2023-10-09T06:29:11.691Z,161
2023-10-09T06:30:27.977Z,208
2023-10-09T06:31:44.362Z,221
2023-10-09T06:33:00.545Z,186
2023-10-09T06:34:16.840Z,171
2023-10-09T06:35:33.010Z,158
2023-10-09T06:36:49.317Z,237
2023-10-09T06:38:05.493Z,239
2023-10-09T06:39:21.794Z,215
2023-10-09T06:40:37.968Z,245
2023-10-09T06:41:54.263Z,346
2023-10-09T06:43:10.510Z,437
2023-10-09T06:44:26.748Z,458
2023-10-09T06:45:42.992Z,371
2023-10-09T06:46:59.176Z,349
2023-10-09T06:48:14.428Z,335
2023-10-09T06:49:30.712Z,283
2023-10-09T06:50:46.911Z,278
2023-10-09T06:52:03.189Z,286
2023-10-09T06:53:19.440Z,291
2023-10-09T06:54:35.682Z,266
2023-10-09T06:55:51.925Z,294
2023-10-09T06:57:08.108Z,351
2023-10-09T06:58:24.402Z,433
2023-10-09T06:59:40.636Z,429
2023-10-09T07:00:56.865Z,495
2023-10-09T07:02:13.107Z,610
2023-10-09T07:03:29.346Z,718
2023-10-09T07:04:44.613Z,734
2023-10-09T07:06:00.798Z,729
2023-10-09T07:07:17.088Z,823
2023-10-09T07:08:33.318Z,1046
2023-10-09T07:09:49.556Z,994
2023-10-09T07:11:05.797Z,947
2023-10-09T07:12:21.986Z,929
2023-10-09T07:13:38.283Z,775
2023-10-09T07:14:54.519Z,899
2023-10-09T07:16:10.709Z,932
2023-10-09T07:17:27.006Z,980
2023-10-09T07:18:43.250Z,780
2023-10-09T07:19:59.490Z,609
2023-10-09T07:21:14.737Z,557
2023-10-09T07:22:30.917Z,508
2023-10-09T07:23:47.164Z,386
2023-10-09T07:25:03.444Z,196
2023-10-09T07:26:19.635Z,175
2023-10-09T07:27:35.939Z,220
2023-10-09T07:28:52.129Z,505
2023-10-09T07:30:08.367Z,739
2023-10-09T07:31:24.609Z,633
2023-10-09T07:32:40.860Z,487
2023-10-09T07:33:57.094Z,487
2023-10-09T07:35:13.324Z,533
2023-10-09T07:36:29.566Z,505
2023-10-09T07:37:44.833Z,462
2023-10-09T07:39:01.072Z,922
2023-10-09T07:40:17.280Z,1210
2023-10-09T07:41:33.536Z,1068
2023-10-09T07:42:49.772Z,993
2023-10-09T07:44:06.035Z,989
2023-10-09T07:45:22.272Z,912
2023-10-09T07:46:38.511Z,1261
2023-10-09T07:47:54.728Z,1227
2023-10-09T07:49:10.990Z,1066
2023-10-09T07:50:27.215Z,1129
2023-10-09T07:51:43.445Z,1262
2023-10-09T07:52:59.693Z,1262
2023-10-09T07:54:16.056Z,1083
2023-10-09T07:55:32.309Z,869
2023-10-09T07:56:48.549Z,850
2023-10-09T07:58:04.786Z,815
2023-10-09T07:59:21.021Z,957
2023-10-09T08:00:37.259Z,889
2023-10-09T08:01:53.503Z,1082
2023-10-09T08:03:09.731Z,1233
2023-10-09T08:04:25.971Z,1001
2023-10-09T08:05:42.215Z,724
2023-10-09T08:06:58.457Z,552
2023-10-09T08:08:14.695Z,610
2023-10-09T08:09:30.930Z,988
2023-10-09T08:10:46.199Z,1217
2023-10-09T08:12:02.428Z,1148
2023-10-09T08:13:18.667Z,953
2023-10-09T08:14:34.917Z,956
2023-10-09T08:15:51.148Z,1000
2023-10-09T08:17:07.384Z,897
2023-10-09T08:18:23.628Z,921
2023-10-09T08:19:39.853Z,1149
2023-10-09T08:20:56.113Z,1540
2023-10-09T08:22:12.337Z,1348
2023-10-09T08:23:28.578Z,759
2023-10-09T08:24:44.814Z,831
2023-10-09T08:26:01.058Z,917
2023-10-09T08:27:16.313Z,713
2023-10-09T08:28:32.554Z,869
2023-10-09T08:29:48.794Z,972
2023-10-09T08:31:05.029Z,1033
2023-10-09T08:32:21.282Z,902
2023-10-09T08:33:37.525Z,902
2023-10-09T08:34:53.746Z,994
2023-10-09T08:36:09.983Z,1054
2023-10-09T08:37:26.243Z,1015
2023-10-09T08:38:42.469Z,1031
2023-10-09T08:39:58.716Z,1029
2023-10-09T08:41:14.949Z,1041
2023-10-09T08:42:31.184Z,943
2023-10-09T08:43:46.446Z,918
2023-10-09T08:45:02.676Z,905
2023-10-09T08:46:18.920Z,824
2023-10-09T08:47:35.166Z,732
2023-10-09T08:48:51.411Z,703
2023-10-09T08:50:07.631Z,725
2023-10-09T08:51:23.873Z,731
2023-10-09T08:52:40.118Z,737
2023-10-09T08:53:56.369Z,819
2023-10-09T08:55:12.608Z,938
2023-10-09T08:56:28.830Z,765
2023-10-09T08:57:45.069Z,1053
2023-10-09T08:59:01.308Z,1127
2023-10-09T09:00:17.667Z,967
2023-10-09T09:01:33.909Z,967
2023-10-09T09:02:50.161Z,1107
2023-10-09T09:04:06.396Z,1328
2023-10-09T09:05:22.629Z,1583
2023-10-09T09:06:38.888Z,1452
2023-10-09T09:07:55.114Z,1296
2023-10-09T09:09:11.354Z,1219
2023-10-09T09:10:27.586Z,1059
2023-10-09T09:11:43.844Z,1017
2023-10-09T09:13:00.074Z,978
2023-10-09T09:14:16.308Z,970
2023-10-09T09:15:32.552Z,980
2023-10-09T09:16:47.817Z,1050
2023-10-09T09:18:04.045Z,1094
2023-10-09T09:19:20.298Z,1054
2023-10-09T09:20:36.526Z,1166
2023-10-09T09:21:52.755Z,1202
2023-10-09T09:23:09.002Z,1246
2023-10-09T09:24:25.246Z,1252
2023-10-09T09:25:41.489Z,1239
2023-10-09T09:26:57.726Z,1002
2023-10-09T09:28:13.959Z,611
2023-10-09T09:29:30.211Z,824
2023-10-09T09:30:46.450Z,1029
2023-10-09T09:32:02.673Z,1068
2023-10-09T09:33:17.930Z,1209
2023-10-09T09:34:34.172Z,1395
2023-10-09T09:35:50.408Z,2003
2023-10-09T09:37:06.649Z,2319
2023-10-09T09:38:22.889Z,2338
2023-10-09T09:39:39.127Z,2424
2023-10-09T09:40:55.383Z,2197
2023-10-09T09:42:11.606Z,1938
2023-10-09T09:43:27.847Z,2405
2023-10-09T09:44:44.085Z,2162
2023-10-09T09:46:00.322Z,2392
2023-10-09T09:47:16.577Z,2765
2023-10-09T09:48:32.807Z,2693
2023-10-09T09:49:48.056Z,3095
2023-10-09T09:51:04.303Z,2180
2023-10-09T09:52:20.545Z,1210
2023-10-09T09:53:36.780Z,2020
2023-10-09T09:54:53.024Z,2297
2023-10-09T09:56:09.253Z,2005
2023-10-09T09:57:25.494Z,1758
2023-10-09T09:58:41.735Z,1799
2023-10-09T09:59:57.974Z,1150
2023-10-09T10:01:14.214Z,1352
2023-10-09T10:02:30.452Z,1358
2023-10-09T10:03:46.700Z,1251
2023-10-09T10:05:02.943Z,1065
2023-10-09T10:06:19.170Z,1404
2023-10-09T10:07:34.433Z,1898
2023-10-09T10:08:50.673Z,2157
2023-10-09T10:10:06.913Z,2611
2023-10-09T10:11:23.163Z,2743
2023-10-09T10:12:39.396Z,2884
2023-10-09T10:13:55.621Z,2373
2023-10-09T10:15:11.872Z,3070
2023-10-09T10:16:28.121Z,2937
2023-10-09T10:17:44.346Z,2468
2023-10-09T10:19:00.585Z,2399
2023-10-09T10:20:16.826Z,2668
2023-10-09T10:21:33.066Z,3228
2023-10-09T10:22:49.322Z,2987
2023-10-09T10:24:05.666Z,2820
2023-10-09T10:25:21.908Z,3121
2023-10-09T10:26:38.145Z,2692
2023-10-09T10:27:54.403Z,1765
2023-10-09T10:29:10.637Z,1674
2023-10-09T10:30:26.866Z,1397
2023-10-09T10:31:43.121Z,1450
2023-10-09T10:32:59.356Z,2132
2023-10-09T10:34:15.598Z,2004
2023-10-09T10:35:31.826Z,2010
2023-10-09T10:38:04.303Z,1146
2023-10-09T10:39:20.545Z,1101
2023-10-09T10:40:35.803Z,1320
2023-10-09T10:41:52.054Z,1184
2023-10-09T10:43:08.289Z,918
2023-10-09T10:44:24.533Z,1030
2023-10-09T10:45:40.773Z,786
2023-10-09T10:46:56.031Z,980
2023-10-09T10:48:12.266Z,682
2023-10-09T10:49:28.503Z,1290
2023-10-09T10:50:44.729Z,689
2023-10-09T10:52:00.974Z,711
2023-10-09T10:53:17.223Z,650
2023-10-09T10:54:33.449Z,659
2023-10-09T10:55:49.703Z,598
2023-10-09T10:57:05.938Z,744
2023-10-09T10:58:22.170Z,797
2023-10-09T10:59:38.411Z,666
2023-10-09T11:00:54.646Z,720
2023-10-09T11:02:10.897Z,683
2023-10-09T11:03:26.143Z,566
2023-10-09T11:04:42.398Z,816
2023-10-09T11:05:58.625Z,793
2023-10-09T11:07:14.854Z,722
2023-10-09T11:08:31.101Z,744
2023-10-09T11:09:47.341Z,897
2023-10-09T11:11:03.587Z,952
2023-10-09T11:12:19.831Z,1029
2023-10-09T11:13:36.067Z,983
2023-10-09T11:14:52.310Z,914
2023-10-09T11:16:08.552Z,998
2023-10-09T11:17:24.781Z,1003
2023-10-09T11:18:41.023Z,957
2023-10-09T11:19:57.390Z,989
2023-10-09T11:21:13.635Z,892
2023-10-09T11:22:29.879Z,1065
2023-10-09T11:23:46.107Z,919
2023-10-09T11:25:02.352Z,1021
2023-10-09T11:26:18.597Z,1032
2023-10-09T11:27:34.824Z,968
2023-10-09T11:28:51.064Z,1198
2023-10-09T11:30:07.308Z,939
2023-10-09T11:31:23.537Z,982
2023-10-09T11:32:39.783Z,993
2023-10-09T11:33:56.032Z,830
2023-10-09T11:35:12.263Z,761
2023-10-09T11:36:27.530Z,631
2023-10-09T11:37:43.772Z,578
2023-10-09T11:39:00.009Z,636
2023-10-09T11:40:16.241Z,788
2023-10-09T11:41:32.477Z,1178
2023-10-09T11:42:48.728Z,897
2023-10-09T11:44:04.954Z,758
2023-10-09T11:45:21.205Z,829
2023-10-09T11:46:37.441Z,1330
2023-10-09T11:47:53.673Z,1498
2023-10-09T11:49:09.922Z,1362
2023-10-09T11:50:26.158Z,1269
2023-10-09T11:51:42.408Z,1031
2023-10-09T11:52:57.658Z,901
2023-10-09T11:54:13.900Z,1041
2023-10-09T11:55:30.118Z,1018
2023-10-09T11:56:46.365Z,831
2023-10-09T11:58:02.616Z,952
2023-10-09T11:59:18.863Z,1283
2023-10-09T12:00:35.096Z,1478
2023-10-09T12:01:51.335Z,1437
2023-10-09T12:03:07.565Z,1090
2023-10-09T12:04:23.823Z,935
2023-10-09T12:05:40.060Z,744
2023-10-09T12:06:56.302Z,743
2023-10-09T12:08:12.525Z,951
2023-10-09T12:09:27.780Z,1085
2023-10-09T12:10:44.035Z,1546
2023-10-09T12:12:00.278Z,1559
2023-10-09T12:13:16.514Z,1460
2023-10-09T12:14:32.745Z,1250
2023-10-09T12:15:48.980Z,1169
2023-10-09T12:17:05.231Z,1278
2023-10-09T12:18:21.463Z,1001
2023-10-09T12:19:37.716Z,1084
2023-10-09T12:20:53.938Z,1076
2023-10-09T12:22:10.192Z,1146
2023-10-09T12:23:26.421Z,1082
2023-10-09T12:24:42.669Z,1176
2023-10-09T12:25:57.918Z,904
2023-10-09T12:27:14.165Z,872
2023-10-09T12:28:30.391Z,725
2023-10-09T12:29:46.634Z,784
2023-10-09T12:31:02.870Z,935
2023-10-09T12:32:19.117Z,912
2023-10-09T12:33:35.360Z,1120
2023-10-09T12:34:51.598Z,1337
2023-10-09T12:36:07.841Z,1243
2023-10-09T12:37:24.085Z,972
2023-10-09T12:38:40.305Z,866
2023-10-09T12:39:56.561Z,1017
2023-10-09T12:41:12.789Z,964
2023-10-09T12:42:28.055Z,923
2023-10-09T12:43:44.293Z,852
2023-10-09T12:45:00.523Z,929
2023-10-09T12:46:16.759Z,754
2023-10-09T12:47:33.005Z,870
2023-10-09T12:48:49.245Z,855
2023-10-09T12:50:05.478Z,793
2023-10-09T12:51:21.727Z,699
2023-10-09T12:52:37.965Z,631
2023-10-09T12:53:54.202Z,546
2023-10-09T12:55:10.439Z,593
2023-10-09T12:56:26.690Z,736
2023-10-09T12:57:42.929Z,803
2023-10-09T12:58:59.283Z,783
2023-10-09T13:00:15.526Z,759
2023-10-09T13:01:31.759Z,745
2023-10-09T13:02:47.995Z,705
2023-10-09T13:04:04.237Z,875
2023-10-09T13:05:20.476Z,875
2023-10-09T13:06:36.721Z,788
2023-10-09T13:07:52.964Z,857
2023-10-09T13:09:09.207Z,814
2023-10-09T13:10:25.446Z,790
2023-10-09T13:11:41.671Z,930
2023-10-09T13:12:57.916Z,986
2023-10-09T13:14:14.167Z,997
2023-10-09T13:15:29.420Z,905
2023-10-09T13:16:45.652Z,893
2023-10-09T13:18:01.894Z,1180
2023-10-09T13:19:18.142Z,1121
2023-10-09T13:20:34.376Z,1375
2023-10-09T13:21:50.611Z,1310
2023-10-09T13:23:06.852Z,914
2023-10-09T13:24:23.079Z,978
2023-10-09T13:25:39.335Z,1008
2023-10-09T13:26:55.558Z,983
2023-10-09T13:28:11.803Z,933
2023-10-09T13:29:28.055Z,961
2023-10-09T13:30:44.275Z,1124
2023-10-09T13:31:59.537Z,887
2023-10-09T13:33:15.787Z,1114
2023-10-09T13:34:32.026Z,1060
2023-10-09T13:35:48.246Z,849
2023-10-09T13:37:04.488Z,657
2023-10-09T13:38:20.739Z,880
2023-10-09T13:39:36.983Z,1193
2023-10-09T13:40:53.217Z,1217
2023-10-09T13:42:09.454Z,1090
2023-10-09T13:43:25.686Z,902
2023-10-09T13:44:41.919Z,1114
2023-10-09T13:45:58.170Z,1181
2023-10-09T13:47:14.403Z,985
2023-10-09T13:48:29.658Z,875
2023-10-09T13:49:45.894Z,791
2023-10-09T13:51:02.132Z,834
2023-10-09T13:52:18.379Z,842
2023-10-09T13:53:34.618Z,963
2023-10-09T13:54:50.863Z,699
2023-10-09T13:56:07.091Z,849
2023-10-09T13:57:23.342Z,703
2023-10-09T13:58:39.575Z,775
2023-10-09T13:59:55.814Z,912
2023-10-09T14:01:12.049Z,701
2023-10-09T14:02:28.289Z,560
2023-10-09T14:03:44.526Z,490
2023-10-09T14:05:00.886Z,486
2023-10-09T14:06:17.125Z,500
2023-10-09T14:07:33.376Z,494
2023-10-09T14:08:49.609Z,444
2023-10-09T14:10:05.848Z,329
2023-10-09T14:11:22.092Z,370
2023-10-09T14:12:38.314Z,480
2023-10-09T14:13:54.572Z,361
2023-10-09T14:15:10.793Z,348
2023-10-09T14:16:27.049Z,316
2023-10-09T14:17:43.276Z,358
2023-10-09T14:18:59.524Z,328
2023-10-09T14:20:15.765Z,291
2023-10-09T14:21:31.022Z,262
2023-10-09T14:22:47.255Z,375
2023-10-09T14:24:03.497Z,339
2023-10-09T14:25:19.727Z,428
2023-10-09T14:26:35.982Z,631
2023-10-09T14:27:52.216Z,490
2023-10-09T14:29:08.448Z,304
2023-10-09T14:30:24.689Z,313
2023-10-09T14:31:40.936Z,434
2023-10-09T14:32:57.175Z,345
2023-10-09T14:34:13.396Z,271
2023-10-09T14:35:29.650Z,262
2023-10-09T14:36:45.893Z,294
2023-10-09T14:38:01.135Z,282
2023-10-09T14:39:17.389Z,344
2023-10-09T14:40:33.626Z,271
2023-10-09T14:41:49.849Z,262
2023-10-09T14:43:06.095Z,334
2023-10-09T14:44:22.329Z,302
2023-10-09T14:45:38.557Z,263
2023-10-09T14:46:54.814Z,208
2023-10-09T14:48:11.048Z,211
2023-10-09T14:49:27.285Z,215
2023-10-09T14:50:43.505Z,217
2023-10-09T14:51:59.777Z,214
2023-10-09T14:53:15.997Z,146
2023-10-09T14:54:31.267Z,187
2023-10-09T14:55:47.504Z,261
2023-10-09T14:57:03.738Z,230
2023-10-09T14:58:19.980Z,187
2023-10-09T14:59:36.215Z,229
2023-10-09T15:00:52.451Z,282
2023-10-09T15:02:07.718Z,227
2023-10-09T15:03:23.952Z,163
2023-10-09T15:04:40.194Z,161
2023-10-09T15:05:56.430Z,139
2023-10-09T15:07:12.684Z,139
2023-10-09T15:08:28.907Z,211
2023-10-09T15:09:45.150Z,181
2023-10-09T15:11:01.382Z,153
2023-10-09T15:12:17.622Z,172
2023-10-09T15:13:33.879Z,182
2023-10-09T15:14:50.116Z,129
2023-10-09T15:16:06.336Z,162
2023-10-09T15:17:22.580Z,148
2023-10-09T15:18:37.828Z,185
2023-10-09T15:21:10.318Z,138
2023-10-09T15:22:26.561Z,207
2023-10-09T15:23:42.789Z,185
2023-10-09T15:24:59.024Z,207
2023-10-09T15:26:15.270Z,166
2023-10-09T15:27:31.520Z,188
2023-10-09T15:28:47.751Z,149
2023-10-09T15:30:03.997Z,160
2023-10-09T15:31:20.223Z,178
2023-10-09T15:32:36.477Z,186
2023-10-09T15:33:52.710Z,156
2023-10-09T15:35:07.955Z,169
2023-10-09T15:36:24.195Z,234
2023-10-09T15:37:40.447Z,187
2023-10-09T15:38:56.672Z,154
2023-10-09T15:40:12.925Z,216
2023-10-09T15:41:29.132Z,158
2023-10-09T15:42:45.396Z,147
2023-10-09T15:44:01.633Z,116
2023-10-09T15:45:17.877Z,132
2023-10-09T15:46:34.105Z,114
2023-10-09T15:47:50.367Z,181
2023-10-09T15:49:06.596Z,159
2023-10-09T15:50:22.830Z,111
2023-10-09T15:51:38.088Z,159
2023-10-09T15:52:54.325Z,120
2023-10-09T15:54:10.560Z,114
2023-10-09T15:55:26.808Z,98
2023-10-09T15:56:43.060Z,135
2023-10-09T15:57:59.295Z,80
2023-10-09T15:59:15.520Z,92
2023-10-09T16:00:31.772Z,85
2023-10-09T16:01:48.011Z,140
2023-10-09T16:03:04.248Z,113
2023-10-09T16:04:20.486Z,91
2023-10-09T16:05:36.725Z,101
2023-10-09T16:06:52.957Z,90
2023-10-09T16:08:08.223Z,86
2023-10-09T16:09:24.468Z,72
2023-10-09T16:10:40.708Z,60
2023-10-09T16:11:56.946Z,50
2023-10-09T16:13:13.187Z,33
2023-10-09T16:14:29.420Z,36
2023-10-09T16:15:45.650Z,40
2023-10-09T16:17:01.898Z,45
2023-10-09T16:18:18.140Z,37
2023-10-09T16:19:34.377Z,42
2023-10-09T16:20:50.592Z,35
2023-10-09T16:22:06.843Z,43
2023-10-09T16:23:23.085Z,47
2023-10-09T16:24:38.324Z,50
2023-10-09T16:25:54.581Z,41
2023-10-09T16:27:10.838Z,30
2023-10-09T16:28:27.065Z,26
2023-10-09T16:29:43.302Z,14
2023-10-09T16:30:59.545Z,15
2023-10-09T16:32:15.762Z,13
2023-10-09T16:33:32.023Z,12
2023-10-09T16:34:48.246Z,15
2023-10-09T16:36:04.515Z,12
2023-10-09T16:37:20.743Z,10
2023-10-09T16:38:36.986Z,6
2023-10-09T16:39:53.217Z,5
2023-10-09T16:41:08.491Z,5
2023-10-09T16:42:24.729Z,6
2023-10-09T16:43:40.957Z,3
2023-10-09T16:44:57.209Z,2
2023-10-09T16:46:13.431Z,3
2023-10-09T16:47:29.675Z,2
2023-10-09T16:48:45.924Z,1
2023-10-09T16:50:02.148Z,1
2023-10-09T16:51:18.402Z,1
2023-10-09T16:52:34.636Z,1
2023-10-09T16:53:50.934Z,0
2023-10-09T16:55:07.226Z,0
2023-10-09T16:56:23.521Z,0
2023-10-09T16:57:38.825Z,0
2023-10-09T16:58:55.127Z,0
2023-10-09T17:00:11.427Z,0
2023-10-09T17:01:27.718Z,0
2023-10-09T17:02:43.998Z,0
2023-10-09T17:04:00.288Z,0
2023-10-09T17:05:16.590Z,0
2023-10-09T17:06:32.884Z,0
2023-10-09T17:07:49.169Z,0
2023-10-09T17:09:05.474Z,0
2023-10-09T17:10:21.758Z,0
2023-10-09T17:11:38.063Z,0
2023-10-09T17:12:54.346Z,0
2023-10-09T17:14:09.657Z,0
2023-10-09T17:15:25.957Z,0
2023-10-09T17:16:42.257Z,0
2023-10-09T17:17:58.547Z,0
2023-10-09T17:19:14.830Z,0
2023-10-09T17:20:31.139Z,0
2023-10-09T17:21:47.427Z,0
2023-10-09T17:23:03.725Z,0
2023-10-09T17:24:20.001Z,0
2023-10-09T17:25:36.299Z,0
2023-10-09T17:26:52.602Z,0
2023-10-09T17:28:08.896Z,0
2023-10-09T17:29:25.193Z,0
2023-10-09T17:30:40.498Z,0
2023-10-09T17:31:56.782Z,0
2023-10-09T17:33:13.079Z,0
2023-10-09T17:34:29.367Z,0
2023-10-09T17:35:45.676Z,0
2023-10-09T17:37:01.967Z,0
2023-10-09T17:38:18.236Z,0
2023-10-09T17:39:34.551Z,0
2023-10-09T17:40:50.839Z,0
2023-10-09T17:42:07.147Z,0
2023-10-09T17:43:23.440Z,0
2023-10-09T17:44:39.730Z,0
2023-10-09T17:45:56.008Z,0
2023-10-09T17:47:11.327Z,0
2023-10-09T17:48:27.619Z,0
2023-10-09T17:49:43.916Z,0
2023-10-09T17:51:00.183Z,0
2023-10-09T17:52:16.510Z,0
2023-10-09T17:53:32.799Z,0
2023-10-09T17:54:49.084Z,0
2023-10-09T17:56:05.388Z,0